Steptoe Valley WMA, Nevada Weather observations

Data are for 10 minute period ending at time listed.
 Day   Time   Solar   Ave.   Ave.  Ave.  Vector  Max.   Baro.   Total    
  of    of     Rad.   Air    Rel.  Wind   Wind   Wind  Press.  Precip.   
Year   Day            Temp.  Hum.  Speed  Dir.   Gust                    
2015   (PST)  Kw/m2    F      %     mph   deg.    mph    mb.     in.     
-------------------------------------------------------------------------
 107   15:00   0.63   60.9    16   13.5   358    21.3   802.0    0.00 
 107   15:10   0.60   61.6    15   12.8   344    20.2   802.0    0.00 
 107   15:20   0.57   61.2    16   13.9   345    21.8   802.0    0.00 
 107   15:30   0.53   61.2    15   14.2   344    21.1   802.0    0.00 
 107   15:40   0.50   60.8    15   12.1   350    17.8   801.9    0.00 
 107   15:50   0.47   61.0    15   13.2   359    19.4   801.9    0.00 
 107   16:00   0.44   61.0    14   13.5   356    22.5   801.8    0.00 
 107   16:10   0.40   60.9    15   13.5   355    21.3   801.7    0.00 
 107   16:20   0.37   61.0    14   13.1   352    22.6   801.7    0.00 
 107   16:30   0.33   60.6    15   12.3   356    20.7   801.8    0.00 
 107   16:40   0.30   60.4    14   13.0   351    22.4   801.8    0.00 
 107   16:50   0.26   60.2    14   13.6   354    23.8   801.8    0.00 
 107   17:00   0.23   59.7    14   13.6   356    20.5   801.7    0.00 
 107   17:10   0.19   59.4    15   13.3   356    21.0   801.6    0.00 
 107   17:20   0.16   58.9    15   12.8   352    19.6   801.6    0.00 
 107   17:30   0.13   58.4    15   12.5   352    17.2   801.6    0.00 
 107   17:40   0.10   58.0    15   11.8   353    19.3   801.6    0.00 
 107   17:50   0.08   57.1    15   10.4   352    17.7   801.6    0.00 
 107   18:00   0.05   56.3    16    9.3   356    18.3   801.6    0.00 
 107   18:10   0.01   53.9    18    7.2   348    11.0   801.6    0.00 
 107   18:20   0.01   51.9    19    5.7   348     7.9   801.7    0.00 
 107   18:30   0.00   48.1    22    1.8   351     6.1   801.7    0.00 
 107   18:40   0.00   46.3    25    3.2   360     5.0   801.9    0.00 
 107   18:50   0.00   44.4    28    0.8   349     1.9   802.2    0.00 
 107   19:00   0.00   43.6    27    0.0   337     1.2   802.4    0.00 
 107   19:10   0.00   42.8    27    0.7   354     3.5   802.6    0.00 
 107   19:20   0.00   43.1    27    3.3     7     5.7   802.8    0.00 
 107   19:30   0.00   41.9    28    1.2   356     3.4   803.0    0.00 
 107   19:40   0.00   39.9    36    1.7   169     2.6   803.1    0.00 
 107   19:50   0.00   38.5    37    1.0   175     2.4   803.3    0.00 
 107   20:00   0.00   40.1    32    0.4   155     1.4   803.5    0.00 
 107   20:10   0.00   40.6    32    0.3   340     1.8   803.6    0.00 
 107   20:20   0.00   40.0    32    0.4    29     2.3   803.6    0.00 
 107   20:30   0.00   41.5    30    3.1    28     5.0   803.7    0.00 
 107   20:40   0.00   43.2    27    4.0    40     5.2   803.8    0.00 
 107   20:50   0.00   43.0    27    4.1    61     5.7   803.8    0.00 
 107   21:00   0.00   39.3    29    5.0    77     7.8   803.8    0.00 
 107   21:10   0.00   38.2    31    5.1    80     6.6   803.9    0.00 
 107   21:20   0.00   38.9    30    4.9    78     6.6   803.9    0.00 
 107   21:30   0.00   37.5    31    5.3    82     6.4   803.9    0.00 
 107   21:40   0.00   36.1    34    1.6   121     6.3   803.9    0.00 
 107   21:50   0.00   33.8    40    2.0   146     6.9   803.9    0.00 
 107   22:00   0.00   33.1    41    0.8   125     4.1   804.0    0.00 
 107   22:10   0.00   31.0    55    0.8   205     2.6   804.1    0.00 
 107   22:20   0.00   24.4    58    2.6   161     3.9   804.3    0.00 
 107   22:30   0.00   27.5    58    1.7   154     3.0   804.3    0.00 
 107   22:40   0.00   28.5    52    2.7   182     5.1   804.3    0.00 
 107   22:50   0.00   27.6    51    2.2   169     4.2   804.3    0.00 
 107   23:00   0.00   27.5    52    2.1   166     3.5   804.3    0.00 
 107   23:10   0.00   27.7    50    1.5   170     2.9   804.4    0.00 
 107   23:20   0.00   25.9    56    1.4   170     3.3   804.4    0.00 
 107   23:30   0.00   24.2    58    0.7   170     2.5   804.4    0.00 
 107   23:40   0.00   26.9    52    3.8   187     6.9   804.3    0.00 
 107   23:50   0.00   27.2    48    3.2   188     7.5   804.3    0.00 
 108    0:00   0.00   29.3    43    4.9   174     8.4   804.4    0.00 
 108    0:10   0.00   28.6    48    3.3   197     7.7   804.4    0.00 
 108    0:20   0.00   26.1    52    2.9   178     5.2   804.3    0.00 
 108    0:30   0.00   25.0    55    3.5   189     5.5   804.2    0.00 
 108    0:40   0.00   24.6    56    3.0   184     5.3   804.1    0.00 
 108    0:50   0.00   25.1    55    1.9   170     3.7   804.0    0.00 
 108    1:00   0.00   23.4    58    1.1   205     3.2   803.9    0.00 
 108    1:10   0.00   22.4    61    3.3   174     5.6   803.9    0.00 
 108    1:20   0.00   22.0    58    2.3   156     3.6   803.7    0.00 
 108    1:30   0.00   22.9    57    3.0   181     4.8   803.7    0.00 
 108    1:40   0.00   23.7    55    4.0   166     5.8   803.6    0.00 
 108    1:50   0.00   24.8    51    3.5   159     5.5   803.7    0.00 
 108    2:00   0.00   25.9    50    3.4   155     5.8   803.7    0.00 
 108    2:10   0.00   24.5    56    3.2   192     6.4   803.8    0.00 
 108    2:20   0.00   21.0    62    3.6   167     5.3   803.8    0.00 
 108    2:30   0.00   19.8    67    3.0   171     5.0   803.8    0.00 
 108    2:40   0.00   19.8    67    3.4   168     5.2   803.7    0.00 
 108    2:50   0.00   21.2    62    2.1   158     5.8   803.7    0.00 
 108    3:00   0.00   24.7    56    3.5   172     7.1   803.7    0.00 
 108    3:10   0.00   21.9    61    0.7    60     2.0   803.7    0.00 
 108    3:20   0.00   19.6    66    1.6   179     4.2   803.7    0.00 
 108    3:30   0.00   18.1    70    4.9   164     6.7   803.7    0.00 
 108    3:40   0.00   18.9    69    3.9   167     6.0   803.5    0.00 
 108    3:50   0.00   21.2    61    5.2   162     7.7   803.5    0.00 
 108    4:00   0.00   22.5    55    5.6   168     8.3   803.5    0.00 
 108    4:10   0.00   23.5    54    5.2   183     8.1   803.5    0.00 
 108    4:20   0.00   20.0    62    3.1   190     4.4   803.7    0.00 
 108    4:30   0.00   18.2    66    4.1   176     5.3   803.7    0.00 
 108    4:40   0.00   18.2    66    3.3   163     4.9   803.7    0.00 
 108    4:50   0.00   18.7    70    3.5   186     5.6   803.7    0.00 
 108    5:00   0.00   20.0    70    2.6   214     5.6   803.7    0.00 
 108    5:10   0.01   19.0    69    4.2   187     6.1   803.7    0.00 
 108    5:20   0.01   18.0    67    4.4   166     6.1   803.8    0.00 
 108    5:30   0.02   18.4    67    3.0   169     5.3   803.7    0.00 
 108    5:40   0.02   20.2    65    3.3   157     5.6   803.9    0.00 
 108    5:50   0.02   21.7    60    2.7   158     4.0   804.0    0.00 
 108    6:00   0.08   22.8    59    1.5   152     3.0   804.0    0.00 
 108    6:10   0.18   26.0    58    2.4   157     4.9   804.1    0.00 
 108    6:20   0.22   29.4    56    5.0   182     7.5   804.2    0.00 
 108    6:30   0.25   31.1    51    3.6   166     6.5   804.3    0.00 
 108    6:40   0.29   34.7    44    3.8   166     6.6   804.4    0.00 
 108    6:50   0.32   38.2    38    4.8   155     6.6   804.5    0.00 
 108    7:00   0.36   40.0    35    5.3   153     7.2   804.5    0.00 
 108    7:10   0.39   42.8    32    4.0   160     6.2   804.6    0.00 
 108    7:20   0.43   44.7    30    4.1   175     5.6   804.6    0.00 
 108    7:30   0.46   46.5    29    3.2   169     5.4   804.5    0.00 
 108    7:40   0.50   48.5    27    2.7   176     4.7   804.3    0.00 
 108    7:50   0.53   50.5    25    1.1   132     2.6   804.2    0.00 
 108    8:00   0.56   52.3    24    2.2    18     5.4   804.1    0.00 
 108    8:10   0.60   52.3    24    4.2   348     8.9   803.9    0.00 
 108    8:20   0.63   53.1    24    6.2   340    13.2   803.9    0.00 
 108    8:30   0.66   54.5    22    8.2   330    13.7   803.8    0.00 
 108    8:40   0.69   56.3    20    9.4   328    13.9   803.7    0.00 
 108    8:50   0.71   57.0    20   10.2   330    16.4   803.6    0.00 
 108    9:00   0.74   57.7    19   11.5   331    16.7   803.6    0.00 
 108    9:10   0.77   57.7    18   10.6   338    17.2   803.6    0.00 
 108    9:20   0.79   58.2    18   10.9   342    17.8   803.5    0.00 
 108    9:30   0.81   58.4    18   11.6   327    18.5   803.6    0.00 
 108    9:40   0.83   59.7    17   11.9   337    20.7   803.5    0.00 
 108    9:50   0.85   59.6    17   12.8   335    22.3   803.5    0.00 
 108   10:00   0.87   60.0    17   13.0   358    21.0   803.4    0.00 
 108   10:10   0.89   60.4    16   12.5   354    18.0   803.3    0.00 
 108   10:20   0.90   60.4    15   12.1   346    20.8   803.2    0.00 
 108   10:30   0.92   61.0    15   11.2   353    20.8   803.3    0.00 
 108   10:40   0.93   60.7    16   12.1     3    19.6   803.3    0.00 
 108   10:50   0.94   61.0    16   11.0     7    20.1   803.2    0.00 
 108   11:00   0.94   61.0    16    9.4   358    18.3   803.1    0.00 
 108   11:10   0.95   61.6    16   11.4   360    18.2   803.0    0.00 
 108   11:20   0.95   61.8    15    8.8   357    19.5   802.9    0.00 
 108   11:30   0.95   62.4    17   11.5     8    20.7   802.8    0.00 
 108   11:40   0.95   62.2    17    7.6   354    17.3   802.8    0.00 
 108   11:50   0.95   62.0    17   10.1    20    17.0   802.8    0.00 
 108   12:00   0.95   63.1    17    9.0   347    16.4   802.7    0.00 
 108   12:10   0.94   63.7    16    8.7   359    18.6   802.7    0.00 
 108   12:20   0.94   64.1    16    8.1   344    14.0   802.6    0.00 
 108   12:30   0.93   63.5    17   11.6    13    20.8   802.5    0.00 
 108   12:40   0.93   63.9    16   10.9    15    20.5   802.5    0.00 
 108   12:50   0.92   63.9    16    8.6    16    21.9   802.4    0.00 
 108   13:00   0.93   64.6    15   11.2   354    22.4   802.4    0.00 
 108   13:10   0.61   64.1    15    4.7   356    12.9   802.5    0.00 
 108   13:20   0.93   64.5    15    8.5     0    17.1   802.3    0.00 
 108   13:30   0.63   64.4    15    9.6    20    18.9   802.3    0.00 
 108   13:40   0.52   62.1    16    7.3   339    14.4   802.2    0.00 
 108   13:50   0.59   63.8    15    3.9   358    11.2   802.1    0.00 
 108   14:00   0.83   65.2    14    7.8   333    13.7   802.0    0.00 
 108   14:10   0.66   65.7    14   10.8   343    20.5   801.9    0.00 
 108   14:20   0.32   63.6    15    6.8     2    11.8   801.8    0.00 
 108   14:30   0.51   64.3    15    7.7   338    16.9   801.7    0.00 
 108   14:40   0.78   65.2    15    9.2   355    20.8   801.7    0.00 
 108   14:50   0.17   63.0    17   14.9   357    29.1   801.7    0.00 

Return to Steptoe Valley WMA graphs page.


Western Regional Climate Center,wrcc@dri.edu